Time;durP1;ratioP1;P1;durP2;ratioP2;P2;SDS_P1;SDS_P2;PMS_P1;PMS_P2;Temp;Humidity;BMP_temperature;BMP_pressure;BME280_temperature;BME280_humidity;BME280_pressure;Samples;Min_cycle;Max_cycle;Signal;HPM_P1;HPM_P2
2023/06/12 00:01:17;;;;;;;8.00;3.95;;;20.40;58.00;;;;;;5029961;28;20345;-67
2023/06/12 00:03:43;;;;;;;10.18;4.18;;;20.40;58.00;;;;;;5029434;28;20036;-67
2023/06/12 00:06:10;;;;;;;11.98;4.82;;;20.50;58.40;;;;;;5030055;28;20079;-66
2023/06/12 00:08:41;;;;;;;8.48;4.47;;;20.50;58.50;;;;;;5028980;28;20030;-67
2023/06/12 00:11:09;;;;;;;9.50;4.55;;;20.50;58.40;;;;;;5030064;28;20109;-67
2023/06/12 00:13:36;;;;;;;5.65;4.22;;;20.50;59.00;;;;;;5030174;28;20030;-66
2023/06/12 00:16:02;;;;;;;8.50;4.30;;;20.50;59.40;;;;;;5030733;28;20029;-66
2023/06/12 00:18:28;;;;;;;8.63;4.57;;;20.50;59.40;;;;;;5029994;28;20041;-66
2023/06/12 00:20:53;;;;;;;7.07;4.50;;;20.40;59.70;;;;;;5028832;28;20033;-67
2023/06/12 00:23:19;;;;;;;6.30;4.30;;;20.40;60.50;;;;;;5028801;28;20033;-67
2023/06/12 00:25:45;;;;;;;9.35;4.82;;;20.30;60.40;;;;;;5029886;28;20057;-68
2023/06/12 00:28:10;;;;;;;7.95;3.78;;;20.20;61.60;;;;;;5030051;28;20036;-66
2023/06/12 00:30:37;;;;;;;12.40;4.68;;;20.10;62.10;;;;;;5030351;28;20147;-67
2023/06/12 00:33:04;;;;;;;9.93;5.63;;;20.20;61.40;;;;;;5029160;28;20410;-66
2023/06/12 00:35:29;;;;;;;10.38;5.03;;;20.30;62.20;;;;;;5030171;28;20026;-67
2023/06/12 00:37:55;;;;;;;11.27;4.60;;;20.30;61.50;;;;;;5029970;28;20372;-67
2023/06/12 00:40:21;;;;;;;10.43;4.90;;;20.30;62.60;;;;;;5029601;28;20053;-67
2023/06/12 00:42:49;;;;;;;6.45;4.53;;;20.40;62.30;;;;;;5031609;28;20125;-66
2023/06/12 00:45:17;;;;;;;11.68;4.30;;;20.40;62.90;;;;;;5033341;28;20467;-67
2023/06/12 00:47:45;;;;;;;11.73;4.80;;;20.30;63.20;;;;;;5033310;28;20147;-66
2023/06/12 00:50:13;;;;;;;9.43;5.07;;;20.20;64.00;;;;;;5033298;28;20332;-66
2023/06/12 00:52:45;;;;;;;9.27;4.80;;;20.10;64.20;;;;;;5032291;28;20025;-66
2023/06/12 00:55:11;;;;;;;9.25;4.95;;;20.10;64.40;;;;;;5032139;28;20040;-66
2023/06/12 00:57:38;;;;;;;10.10;4.68;;;20.00;64.70;;;;;;5033917;28;20442;-67
2023/06/12 01:00:09;;;;;;;9.45;5.07;;;20.10;65.20;;;;;;5033281;28;20464;-66
2023/06/12 01:02:39;;;;;;;11.60;4.45;;;20.00;65.50;;;;;;5033005;28;20037;-67
2023/06/12 01:05:08;;;;;;;9.98;5.00;;;20.10;65.40;;;;;;5032929;28;20037;-66
2023/06/12 01:07:44;;;;;;;7.78;5.30;;;20.10;65.40;;;;;;5033197;28;20034;-67
2023/06/12 01:10:44;;;;;;;7.20;5.03;;;20.20;66.30;;;;;;5033235;28;20473;-66
2023/06/12 01:13:11;;;;;;;6.43;4.63;;;20.20;65.90;;;;;;5032160;28;20029;-68
2023/06/12 01:15:38;;;;;;;8.38;5.78;;;20.00;66.60;;;;;;5033214;28;20450;-67
2023/06/12 01:18:06;;;;;;;10.38;5.38;;;20.00;66.80;;;;;;5031742;28;20364;-66
2023/06/12 01:20:34;;;;;;;9.77;5.65;;;19.90;67.30;;;;;;5032769;28;20098;-67
2023/06/12 01:23:23;;;;;;;8.63;5.15;;;19.90;67.80;;;;;;5032712;28;20029;-66
2023/06/12 01:26:25;;;;;;;8.27;5.68;;;19.90;67.90;;;;;;5032606;28;20444;-67
2023/06/12 01:29:13;;;;;;;6.90;4.95;;;19.90;69.00;;;;;;5032534;28;20108;-66
2023/06/12 01:32:07;;;;;;;11.35;5.40;;;19.80;68.80;;;;;;5032277;28;20049;-67
2023/06/12 01:34:37;;;;;;;7.65;5.28;;;19.70;69.00;;;;;;5032309;28;20083;-67
2023/06/12 01:37:15;;;;;;;7.13;5.32;;;19.80;69.10;;;;;;5031743;28;20057;-66
2023/06/12 01:39:44;;;;;;;7.70;5.28;;;19.80;68.60;;;;;;5052721;28;20046;-68
2023/06/12 01:42:11;;;;;;;10.75;5.25;;;19.70;68.80;;;;;;5052421;28;20427;-68
2023/06/12 01:44:36;;;;;;;11.02;5.95;;;19.80;69.00;;;;;;5040264;28;20087;-67
2023/06/12 01:47:03;;;;;;;9.60;6.00;;;19.70;69.30;;;;;;5047949;28;20372;-67
2023/06/12 01:49:28;;;;;;;10.43;5.85;;;19.60;69.90;;;;;;5032290;28;20478;-67
2023/06/12 01:51:54;;;;;;;7.50;5.90;;;19.70;70.00;;;;;;5032951;28;20057;-68
2023/06/12 01:54:22;;;;;;;10.52;6.32;;;19.80;69.20;;;;;;5031959;28;20120;-68
2023/06/12 01:56:48;;;;;;;8.73;6.05;;;19.80;69.30;;;;;;5032060;28;20059;-67
2023/06/12 01:59:15;;;;;;;6.95;5.15;;;19.80;69.90;;;;;;5031331;28;20124;-66
2023/06/12 02:01:41;;;;;;;12.73;5.95;;;19.70;70.10;;;;;;5032035;28;20036;-69
2023/06/12 02:04:06;;;;;;;12.60;5.70;;;19.60;70.50;;;;;;5048086;28;20056;-67
2023/06/12 02:06:32;;;;;;;8.95;5.90;;;19.60;70.80;;;;;;5032105;28;20558;-67
2023/06/12 02:08:58;;;;;;;13.50;6.13;;;19.60;70.30;;;;;;5032209;28;20116;-67
2023/06/12 02:11:23;;;;;;;10.10;5.97;;;19.50;70.50;;;;;;5032080;28;20030;-67
2023/06/12 02:13:49;;;;;;;9.15;5.60;;;19.40;71.20;;;;;;5031859;28;20057;-67
2023/06/12 02:16:20;;;;;;;10.15;6.07;;;19.30;71.50;;;;;;5032289;28;20030;-67
2023/06/12 02:18:46;;;;;;;8.45;5.38;;;19.10;72.30;;;;;;5032290;28;20028;-68
2023/06/12 02:21:12;;;;;;;8.25;6.03;;;19.10;72.20;;;;;;5031915;28;20059;-68
2023/06/12 02:23:38;;;;;;;8.05;5.65;;;19.10;72.50;;;;;;5031746;28;20475;-67
2023/06/12 02:26:03;;;;;;;6.47;5.50;;;19.00;73.00;;;;;;5046593;28;20034;-67
2023/06/12 02:28:29;;;;;;;14.68;6.05;;;19.00;73.30;;;;;;5031707;28;20029;-68
2023/06/12 02:30:55;;;;;;;9.88;5.72;;;18.90;73.10;;;;;;5031894;28;20114;-67
2023/06/12 02:33:22;;;;;;;10.32;6.03;;;18.80;73.80;;;;;;5030836;28;20041;-68
2023/06/12 02:35:47;;;;;;;12.48;5.50;;;18.80;74.30;;;;;;5031011;28;20045;-67
2023/06/12 02:38:13;;;;;;;8.40;5.70;;;18.80;74.30;;;;;;5031402;28;20064;-68
2023/06/12 02:40:39;;;;;;;9.95;5.70;;;18.80;74.40;;;;;;5030424;28;20120;-67
2023/06/12 02:43:04;;;;;;;12.13;6.50;;;18.80;74.80;;;;;;5031765;28;20163;-67
2023/06/12 02:45:30;;;;;;;9.68;6.20;;;18.70;74.90;;;;;;5029470;28;20111;-68
2023/06/12 02:47:56;;;;;;;14.32;6.35;;;18.70;74.80;;;;;;5031048;28;20452;-67
2023/06/12 02:50:22;;;;;;;8.88;6.30;;;18.60;75.50;;;;;;5031122;28;20049;-67
2023/06/12 02:52:48;;;;;;;16.52;6.70;;;18.60;76.00;;;;;;5031071;28;20499;-68
2023/06/12 02:55:14;;;;;;;13.38;6.20;;;18.40;76.40;;;;;;5031175;28;20025;-67
2023/06/12 02:57:40;;;;;;;10.45;6.30;;;18.50;76.70;;;;;;5030351;28;20036;-67
2023/06/12 03:00:06;;;;;;;12.88;6.25;;;18.40;76.90;;;;;;5030923;28;20022;-67
2023/06/12 03:02:32;;;;;;;11.15;6.07;;;18.40;77.10;;;;;;5030754;28;20044;-67
2023/06/12 03:04:59;;;;;;;16.45;6.88;;;18.30;77.50;;;;;;5029632;28;20022;-68
2023/06/12 03:07:27;;;;;;;12.00;6.68;;;18.40;77.70;;;;;;5030948;28;20455;-67
2023/06/12 03:09:52;;;;;;;8.35;6.35;;;18.40;77.80;;;;;;5031410;28;20022;-67
2023/06/12 03:12:18;;;;;;;10.23;6.80;;;18.40;78.20;;;;;;5030805;28;20025;-67
2023/06/12 03:14:44;;;;;;;9.77;6.20;;;18.40;77.60;;;;;;5030496;28;20456;-67
2023/06/12 03:17:10;;;;;;;10.75;6.78;;;18.30;78.60;;;;;;5030598;28;20037;-67
2023/06/12 03:19:35;;;;;;;12.30;6.65;;;18.40;78.70;;;;;;5030408;28;20021;-68
2023/06/12 03:22:01;;;;;;;11.52;6.97;;;18.40;79.00;;;;;;5030907;28;20184;-68
2023/06/12 03:24:29;;;;;;;14.90;6.88;;;18.30;79.20;;;;;;5030734;28;20044;-67
2023/06/12 03:26:57;;;;;;;17.30;7.70;;;18.20;79.60;;;;;;5030559;28;20279;-68
2023/06/12 03:29:22;;;;;;;15.27;6.60;;;18.10;80.10;;;;;;5030383;28;20590;-67
2023/06/12 03:31:48;;;;;;;13.30;6.30;;;18.10;80.40;;;;;;5030306;28;20053;-66
2023/06/12 03:34:16;;;;;;;17.50;7.38;;;18.10;80.40;;;;;;5030469;28;20021;-68
2023/06/12 03:36:43;;;;;;;22.75;6.88;;;18.10;81.10;;;;;;5029752;28;20025;-67
2023/06/12 03:39:09;;;;;;;11.70;7.13;;;18.00;81.30;;;;;;5030569;28;20068;-65
2023/06/12 03:41:37;;;;;;;21.27;6.97;;;18.00;81.40;;;;;;5030497;28;20068;-66
2023/06/12 03:44:03;;;;;;;16.10;7.25;;;18.00;81.80;;;;;;5030251;28;20076;-66
2023/06/12 03:46:32;;;;;;;18.27;7.40;;;18.00;81.90;;;;;;5030215;28;20584;-66
2023/06/12 03:48:58;;;;;;;17.00;7.57;;;18.00;82.10;;;;;;5030524;28;20415;-66
2023/06/12 03:51:24;;;;;;;9.13;7.05;;;18.00;82.00;;;;;;5029172;28;20116;-67
2023/06/12 03:53:49;;;;;;;11.15;6.85;;;18.00;82.50;;;;;;5029149;28;20034;-66
2023/06/12 03:56:15;;;;;;;11.85;7.15;;;18.00;82.40;;;;;;5030204;28;20037;-68
2023/06/12 03:58:41;;;;;;;11.63;7.25;;;18.00;82.10;;;;;;5030166;28;20041;-66
2023/06/12 04:01:06;;;;;;;11.35;6.93;;;18.00;82.40;;;;;;5030502;28;20099;-66
2023/06/12 04:03:34;;;;;;;11.63;6.63;;;18.00;82.80;;;;;;5030153;28;20060;-66
2023/06/12 04:06:00;;;;;;;9.10;6.15;;;18.20;82.50;;;;;;5029873;28;20068;-68
2023/06/12 04:08:25;;;;;;;13.52;7.45;;;18.10;83.00;;;;;;5029850;28;20460;-67
2023/06/12 04:10:51;;;;;;;18.70;6.97;;;18.20;81.90;;;;;;5030192;28;20041;-66
2023/06/12 04:13:17;;;;;;;13.40;7.60;;;18.30;82.60;;;;;;5030468;28;20025;-67
2023/06/12 04:15:42;;;;;;;13.00;6.57;;;18.20;83.40;;;;;;5030369;28;20029;-66
2023/06/12 04:18:09;;;;;;;10.77;6.10;;;18.20;84.00;;;;;;5033619;28;20085;-68
2023/06/12 04:20:38;;;;;;;20.15;6.85;;;18.30;83.10;;;;;;5033955;28;20120;-68
2023/06/12 04:23:05;;;;;;;19.02;6.95;;;18.30;83.60;;;;;;5033935;28;20025;-68
2023/06/12 04:25:35;;;;;;;10.18;6.80;;;18.30;83.60;;;;;;5049301;28;20037;-68
2023/06/12 04:28:02;;;;;;;10.70;7.28;;;18.30;83.50;;;;;;5034187;28;20071;-67
2023/06/12 04:30:31;;;;;;;14.05;7.53;;;18.30;82.90;;;;;;5033411;28;20058;-68
2023/06/12 04:32:57;;;;;;;14.75;7.45;;;18.30;83.80;;;;;;5033609;28;20048;-68
2023/06/12 04:35:23;;;;;;;14.30;8.00;;;18.30;83.20;;;;;;5033589;28;20065;-68
2023/06/12 04:37:52;;;;;;;16.85;7.53;;;18.40;83.50;;;;;;5033643;28;20045;-67
2023/06/12 04:40:20;;;;;;;15.02;7.03;;;18.20;84.60;;;;;;5032448;28;20030;-68
2023/06/12 04:42:46;;;;;;;10.13;6.75;;;18.20;85.10;;;;;;5034223;28;20018;-68
2023/06/12 04:45:15;;;;;;;16.98;7.60;;;18.40;84.60;;;;;;5048883;28;20563;-67
2023/06/12 04:47:40;;;;;;;12.00;7.55;;;18.40;84.20;;;;;;5032455;28;20429;-67
2023/06/12 04:50:09;;;;;;;21.25;7.40;;;18.50;84.60;;;;;;5033178;28;20029;-67
2023/06/12 04:52:34;;;;;;;17.10;8.27;;;18.40;85.30;;;;;;5033170;28;20387;-69
2023/06/12 04:55:00;;;;;;;19.35;8.27;;;18.60;85.20;;;;;;5033886;28;20026;-69
2023/06/12 04:57:27;;;;;;;16.00;8.15;;;18.70;85.20;;;;;;5033179;28;20025;-67
2023/06/12 04:59:52;;;;;;;12.73;8.20;;;18.80;85.50;;;;;;5032004;28;20034;-67
2023/06/12 05:02:18;;;;;;;11.93;7.70;;;18.80;85.70;;;;;;5033130;28;20392;-68
2023/06/12 05:04:44;;;;;;;17.70;10.10;;;18.90;85.70;;;;;;5033166;28;20598;-69
2023/06/12 05:07:19;;;;;;;17.35;9.65;;;18.90;85.40;;;;;;5033115;28;20026;-67
2023/06/12 05:09:45;;;;;;;16.38;8.52;;;19.00;84.90;;;;;;5033423;28;20041;-68
2023/06/12 05:12:11;;;;;;;26.52;9.68;;;19.10;84.90;;;;;;5032936;28;20313;-69
2023/06/12 05:14:43;;;;;;;19.58;8.20;;;19.10;85.10;;;;;;5032739;28;20035;-68
2023/06/12 05:17:09;;;;;;;16.92;8.02;;;19.20;85.00;;;;;;5031533;28;20033;-67
2023/06/12 05:19:35;;;;;;;17.10;8.07;;;19.20;85.00;;;;;;5032980;28;20369;-68
2023/06/12 05:22:02;;;;;;;15.20;8.18;;;19.30;85.10;;;;;;5033047;28;20037;-67
2023/06/12 05:24:28;;;;;;;21.35;8.35;;;19.30;84.90;;;;;;5032566;28;20052;-68
2023/06/12 05:26:54;;;;;;;22.50;8.55;;;19.40;84.90;;;;;;5032132;28;20475;-67
2023/06/12 05:29:19;;;;;;;24.48;9.25;;;19.30;85.50;;;;;;5030533;28;20121;-67
2023/06/12 05:31:45;;;;;;;13.25;8.20;;;19.30;85.30;;;;;;5032178;28;20045;-66
2023/06/12 05:34:11;;;;;;;17.80;8.18;;;19.30;85.10;;;;;;5032468;28;20499;-67
2023/06/12 05:36:37;;;;;;;11.98;7.10;;;19.40;85.60;;;;;;5032751;28;20411;-68
2023/06/12 05:39:04;;;;;;;16.35;8.02;;;19.40;85.50;;;;;;5032205;28;20669;-68
2023/06/12 05:41:30;;;;;;;16.98;7.47;;;19.50;85.20;;;;;;5032092;28;20084;-68
2023/06/12 05:43:56;;;;;;;14.75;7.22;;;19.60;85.40;;;;;;5031106;28;20103;-65
2023/06/12 05:46:21;;;;;;;15.15;7.97;;;19.70;85.70;;;;;;5031071;28;20435;-66
2023/06/12 05:48:48;;;;;;;20.65;8.63;;;19.70;85.40;;;;;;5032557;28;20120;-66
2023/06/12 05:51:14;;;;;;;18.00;8.43;;;19.80;85.80;;;;;;5032354;28;20044;-66
2023/06/12 05:53:44;;;;;;;19.17;8.98;;;19.90;85.10;;;;;;5032319;28;20105;-67
2023/06/12 05:56:13;;;;;;;27.15;8.48;;;19.90;85.10;;;;;;5032070;28;20033;-66
2023/06/12 05:58:40;;;;;;;18.77;8.43;;;20.00;85.10;;;;;;5031971;28;20112;-64
2023/06/12 06:01:09;;;;;;;23.13;8.13;;;20.10;85.60;;;;;;5032229;28;20260;-65
2023/06/12 06:03:35;;;;;;;18.67;7.68;;;20.20;85.40;;;;;;5032207;28;20029;-65
2023/06/12 06:06:00;;;;;;;30.08;8.40;;;20.30;85.70;;;;;;5031985;28;20034;-65
2023/06/12 06:08:26;;;;;;;17.00;8.35;;;20.40;85.10;;;;;;5031976;28;20087;-65
2023/06/12 06:10:52;;;;;;;20.50;8.20;;;20.60;85.00;;;;;;5031775;28;20108;-64
2023/06/12 06:13:17;;;;;;;14.02;7.80;;;20.70;85.00;;;;;;5031642;28;20471;-65
2023/06/12 06:15:44;;;;;;;12.52;6.85;;;20.90;84.40;;;;;;5032431;28;20462;-67
2023/06/12 06:18:09;;;;;;;14.23;7.05;;;20.90;83.70;;;;;;5031683;28;20052;-65
2023/06/12 06:20:35;;;;;;;16.00;7.13;;;21.00;82.80;;;;;;5031730;28;20034;-67
2023/06/12 06:23:01;;;;;;;9.77;6.70;;;21.10;82.80;;;;;;5031867;28;20025;-65
2023/06/12 06:25:28;;;;;;;11.82;7.07;;;21.10;82.70;;;;;;5031496;28;20029;-66
2023/06/12 06:27:54;;;;;;;9.82;6.72;;;21.10;82.40;;;;;;5031958;28;20018;-68
2023/06/12 06:30:19;;;;;;;10.40;6.70;;;21.20;82.20;;;;;;5031175;28;20037;-69
2023/06/12 06:32:46;;;;;;;12.18;7.32;;;21.40;81.80;;;;;;5031346;28;20393;-68
2023/06/12 06:35:12;;;;;;;11.50;7.28;;;21.50;82.00;;;;;;5031254;28;20040;-70
2023/06/12 06:37:38;;;;;;;12.95;7.55;;;21.60;81.70;;;;;;5031303;28;20367;-67
2023/06/12 06:40:08;;;;;;;11.68;6.80;;;21.60;81.40;;;;;;5027323;28;20037;-68
2023/06/12 06:42:34;;;;;;;15.02;6.75;;;21.70;81.30;;;;;;5032372;28;20034;-67
2023/06/12 06:45:00;;;;;;;16.30;7.22;;;21.80;81.10;;;;;;5031758;28;20040;-67
2023/06/12 06:47:28;;;;;;;17.23;7.90;;;21.80;80.30;;;;;;5032047;28;20029;-68
2023/06/12 06:49:53;;;;;;;17.30;8.10;;;21.70;80.10;;;;;;5032094;28;20079;-69
2023/06/12 06:52:22;;;;;;;17.15;6.82;;;21.70;79.80;;;;;;5031800;28;20044;-69
2023/06/12 06:54:47;;;;;;;10.85;7.00;;;21.60;80.00;;;;;;5031241;28;20036;-70
2023/06/12 06:57:14;;;;;;;15.50;7.20;;;21.60;80.40;;;;;;5032105;28;20117;-72
2023/06/12 06:59:41;;;;;;;14.82;7.22;;;21.60;80.70;;;;;;5031889;28;20022;-69
2023/06/12 07:02:06;;;;;;;10.35;6.90;;;21.80;80.40;;;;;;5031867;28;20026;-70
2023/06/12 07:04:32;;;;;;;12.48;7.10;;;22.00;80.80;;;;;;5031922;28;20033;-70
2023/06/12 07:06:57;;;;;;;11.77;6.05;;;22.10;80.60;;;;;;5032218;28;20513;-69
2023/06/12 07:09:24;;;;;;;15.48;7.72;;;22.30;80.60;;;;;;5031555;28;20056;-68
2023/06/12 07:11:51;;;;;;;13.07;7.00;;;22.50;80.60;;;;;;5031802;28;20037;-75
2023/06/12 07:14:16;;;;;;;11.50;6.40;;;22.60;80.30;;;;;;5031515;28;20061;-70
2023/06/12 07:16:42;;;;;;;12.43;7.25;;;22.70;80.60;;;;;;5030702;28;20099;-70
2023/06/12 07:19:08;;;;;;;13.13;6.43;;;22.80;80.20;;;;;;5031031;28;20486;-70
2023/06/12 07:21:34;;;;;;;15.55;6.30;;;23.00;79.90;;;;;;5031504;28;20082;-69
2023/06/12 07:23:59;;;;;;;11.23;6.78;;;23.10;79.70;;;;;;5030876;28;20474;-69
2023/06/12 07:26:25;;;;;;;10.55;6.45;;;23.10;79.10;;;;;;5031243;28;20033;-67
2023/06/12 07:28:51;;;;;;;9.45;6.53;;;23.20;78.20;;;;;;5031560;28;20061;-68
2023/06/12 07:31:16;;;;;;;13.70;7.40;;;23.20;78.60;;;;;;5030675;28;20375;-70
2023/06/12 07:33:42;;;;;;;10.75;6.82;;;23.30;78.20;;;;;;5031878;28;20021;-71
2023/06/12 07:36:08;;;;;;;11.55;6.15;;;23.40;78.00;;;;;;5030325;28;20443;-71
2023/06/12 07:38:33;;;;;;;9.90;5.85;;;23.50;78.10;;;;;;5029974;28;20082;-71
2023/06/12 07:40:59;;;;;;;10.82;6.30;;;23.60;76.60;;;;;;5030992;28;20040;-69
2023/06/12 07:43:25;;;;;;;10.15;6.10;;;23.70;76.50;;;;;;5031230;28;20022;-68
2023/06/12 07:45:50;;;;;;;10.35;6.55;;;23.70;76.00;;;;;;5031498;28;20029;-68
2023/06/12 07:48:16;;;;;;;10.80;5.72;;;23.80;76.10;;;;;;5030164;28;20490;-68
2023/06/12 07:50:42;;;;;;;16.95;7.05;;;23.90;76.30;;;;;;5030655;28;20037;-68
2023/06/12 07:53:08;;;;;;;13.38;6.60;;;24.10;76.20;;;;;;5036435;28;20159;-69
2023/06/12 07:55:34;;;;;;;15.63;7.28;;;24.40;75.70;;;;;;5037666;28;20560;-69
2023/06/12 07:58:00;;;;;;;11.57;6.95;;;24.50;74.30;;;;;;5037931;28;20104;-68
2023/06/12 08:00:26;;;;;;;10.93;5.63;;;24.80;73.80;;;;;;5036573;28;20025;-68
2023/06/12 08:02:58;;;;;;;10.88;5.65;;;24.90;72.90;;;;;;5037537;28;20034;-69
2023/06/12 08:05:25;;;;;;;9.35;5.93;;;25.00;72.30;;;;;;5037624;28;20075;-69
2023/06/12 08:07:51;;;;;;;11.65;6.70;;;25.10;72.30;;;;;;5037451;28;20433;-73
2023/06/12 08:10:17;;;;;;;15.20;5.80;;;25.40;72.70;;;;;;5037423;28;20025;-70
2023/06/12 08:12:43;;;;;;;9.57;5.57;;;25.40;71.20;;;;;;5036957;28;20052;-70
2023/06/12 08:15:09;;;;;;;8.23;5.40;;;25.50;70.40;;;;;;5037642;28;20033;-71
2023/06/12 08:17:36;;;;;;;7.60;4.93;;;25.60;71.30;;;;;;5037774;28;20029;-70
2023/06/12 08:20:08;;;;;;;10.80;6.43;;;25.70;71.00;;;;;;5036642;28;20034;-70
2023/06/12 08:22:34;;;;;;;9.55;6.00;;;25.90;68.70;;;;;;5037654;28;20470;-70
2023/06/12 08:25:04;;;;;;;8.75;5.20;;;26.10;68.00;;;;;;5037769;28;20021;-72
2023/06/12 08:27:30;;;;;;;8.13;4.38;;;26.30;66.80;;;;;;5037705;28;20026;-71
2023/06/12 08:29:55;;;;;;;12.15;5.20;;;26.40;67.90;;;;;;5037390;28;20053;-73
2023/06/12 08:32:22;;;;;;;9.25;4.95;;;26.70;67.80;;;;;;5037893;28;20053;-72
2023/06/12 08:34:48;;;;;;;16.77;5.57;;;27.10;67.60;;;;;;5037559;28;20368;-72
2023/06/12 08:37:13;;;;;;;9.40;5.22;;;27.40;66.30;;;;;;5037650;28;20036;-70
2023/06/12 08:39:39;;;;;;;9.85;5.13;;;27.70;67.10;;;;;;5037945;28;20022;-71
2023/06/12 08:42:08;;;;;;;13.50;4.55;;;28.20;62.80;;;;;;5037621;28;20034;-72
2023/06/12 08:44:34;;;;;;;11.85;4.80;;;28.80;61.40;;;;;;5037602;28;20045;-70
2023/06/12 08:47:02;;;;;;;14.23;5.30;;;29.10;59.00;;;;;;5037748;28;20063;-71
2023/06/12 08:49:29;;;;;;;8.65;4.40;;;29.40;58.70;;;;;;5037420;28;25754;-69
2023/06/12 08:51:55;;;;;;;6.95;3.40;;;30.10;57.90;;;;;;5036824;28;20057;-70
2023/06/12 08:54:22;;;;;;;10.77;4.22;;;30.40;54.00;;;;;;5037295;28;20474;-70
2023/06/12 08:56:48;;;;;;;7.70;4.00;;;30.70;54.00;;;;;;5037266;28;20440;-70
2023/06/12 08:59:15;;;;;;;30.00;22.63;;;31.50;52.60;;;;;;5037280;28;20413;-70
2023/06/12 09:01:41;;;;;;;14.18;7.93;;;31.70;49.30;;;;;;5037216;28;20044;-71
2023/06/12 09:04:28;;;;;;;16.65;9.63;;;32.50;49.70;;;;;;5033733;28;20124;-71
2023/06/12 09:07:01;;;;;;;;;;;32.80;49.00;;;;;;5034597;28;20503;-72
2023/06/12 09:09:41;;;;;;;6.68;3.85;;;32.40;46.40;;;;;;5034123;28;19919;-71
2023/06/12 09:12:12;;;;;;;9.85;4.25;;;33.00;44.70;;;;;;5034570;28;20083;-71
2023/06/12 09:14:39;;;;;;;12.05;3.83;;;33.10;44.70;;;;;;5040863;28;20099;-70
2023/06/12 09:17:07;;;;;;;8.23;3.67;;;32.90;42.70;;;;;;5053812;28;20050;-69
2023/06/12 09:19:45;;;;;;;;;;;32.50;42.70;;;;;;5053420;28;20266;-70
2023/06/12 09:22:12;;;;;;;7.25;3.80;;;32.40;43.40;;;;;;5053076;28;20008;-70
2023/06/12 09:24:38;;;;;;;15.48;4.35;;;31.60;43.00;;;;;;5052689;28;20097;-69
2023/06/12 09:27:04;;;;;;;5.43;3.53;;;31.20;44.10;;;;;;5051732;28;20029;-70
2023/06/12 09:29:32;;;;;;;7.72;3.72;;;31.00;44.10;;;;;;5052747;28;20036;-70
2023/06/12 09:32:10;;;;;;;5.85;3.45;;;31.00;45.20;;;;;;5052535;28;20052;-69
2023/06/12 09:34:36;;;;;;;7.93;3.78;;;30.90;45.20;;;;;;5052603;28;20033;-70
2023/06/12 09:37:06;;;;;;;13.38;3.70;;;30.40;44.40;;;;;;5053108;28;20021;-71
2023/06/12 09:39:33;;;;;;;4.07;3.10;;;30.30;44.90;;;;;;5052670;28;20348;-70
2023/06/12 09:42:00;;;;;;;8.35;3.40;;;30.30;44.80;;;;;;5052412;28;20409;-70
2023/06/12 09:44:28;;;;;;;8.15;4.07;;;30.10;46.70;;;;;;5052561;28;20025;-70
2023/06/12 09:47:01;;;;;;;4.90;3.15;;;30.10;46.50;;;;;;5052311;28;20029;-70
2023/06/12 09:49:27;;;;;;;9.38;3.30;;;29.90;46.20;;;;;;5052055;28;20072;-70
2023/06/12 09:51:56;;;;;;;4.88;3.20;;;29.70;45.30;;;;;;5052706;28;20475;-69
2023/06/12 09:54:22;;;;;;;5.60;2.95;;;29.60;45.60;;;;;;5051029;28;20460;-69
2023/06/12 09:56:53;;;;;;;5.32;3.05;;;29.50;45.10;;;;;;5052024;28;20471;-70
2023/06/12 09:59:21;;;;;;;6.43;3.10;;;29.60;44.50;;;;;;5051008;28;20033;-69
2023/06/12 10:01:49;;;;;;;11.23;3.45;;;29.50;44.00;;;;;;5052217;28;20037;-69
2023/06/12 10:04:22;;;;;;;6.05;3.40;;;29.30;44.40;;;;;;5052199;28;20413;-70
2023/06/12 10:06:49;;;;;;;7.00;2.95;;;29.30;44.80;;;;;;5052536;28;20071;-70
2023/06/12 10:09:16;;;;;;;5.28;2.80;;;29.30;44.80;;;;;;5052049;28;20348;-70
2023/06/12 10:11:43;;;;;;;10.17;3.00;;;29.10;44.90;;;;;;5052229;28;20430;-71
2023/06/12 10:14:09;;;;;;;6.30;3.08;;;29.20;44.30;;;;;;5051424;28;20471;-71
2023/06/12 10:16:36;;;;;;;9.63;3.08;;;29.30;44.00;;;;;;5051955;28;20394;-67
2023/06/12 10:19:02;;;;;;;4.10;2.97;;;29.10;44.00;;;;;;5050967;28;20060;-70
2023/06/12 10:21:30;;;;;;;12.13;3.20;;;29.00;44.00;;;;;;5051591;28;20355;-69
2023/06/12 10:23:57;;;;;;;5.47;2.92;;;29.00;44.00;;;;;;5051794;28;20108;-70
2023/06/12 10:26:23;;;;;;;6.72;3.40;;;29.00;44.50;;;;;;5051705;28;20101;-70
2023/06/12 10:28:49;;;;;;;5.18;2.78;;;28.90;44.00;;;;;;5051799;28;20049;-70
2023/06/12 10:31:18;;;;;;;4.40;3.05;;;28.90;44.30;;;;;;5051273;28;20048;-69
2023/06/12 10:34:06;;;;;;;6.90;2.92;;;28.80;44.00;;;;;;5052046;28;20473;-69
2023/06/12 10:36:41;;;;;;;5.47;3.03;;;28.90;44.00;;;;;;5051312;28;20132;-69
2023/06/12 10:39:14;;;;;;;4.28;2.60;;;28.90;43.20;;;;;;5051377;28;20090;-69
2023/06/12 10:41:57;;;;;;;7.78;3.40;;;28.80;43.30;;;;;;5051363;28;20052;-70
2023/06/12 10:44:36;;;;;;;4.38;2.40;;;28.80;43.10;;;;;;5051170;28;20036;-69
2023/06/12 10:47:17;;;;;;;3.92;2.17;;;28.90;43.30;;;;;;5050060;28;20037;-69
2023/06/12 10:50:03;;;;;;;5.25;2.40;;;29.10;43.50;;;;;;5051678;28;20037;-69
2023/06/12 10:52:29;;;;;;;9.88;3.30;;;29.20;42.90;;;;;;5051082;28;20099;-68
2023/06/12 10:55:17;;;;;;;9.85;3.92;;;29.20;41.50;;;;;;5051564;28;20422;-69
2023/06/12 10:57:58;;;;;;;3.70;2.90;;;29.20;41.50;;;;;;5051664;28;20124;-68
2023/06/12 11:00:37;;;;;;;6.15;3.03;;;29.20;41.50;;;;;;5050993;28;20039;-69
2023/06/12 11:03:13;;;;;;;10.60;3.65;;;29.10;41.40;;;;;;5051000;28;20032;-70
2023/06/12 11:05:46;;;;;;;5.63;3.30;;;29.10;41.40;;;;;;5050872;28;20087;-69
2023/06/12 11:08:12;;;;;;;7.35;3.00;;;29.10;41.50;;;;;;5050917;28;20132;-69
2023/06/12 11:10:38;;;;;;;14.52;3.83;;;29.20;41.60;;;;;;5051105;28;20108;-70
2023/06/12 11:13:04;;;;;;;6.95;2.72;;;29.20;41.50;;;;;;5050611;28;20059;-69
2023/06/12 11:15:44;;;;;;;6.13;2.75;;;29.20;41.40;;;;;;5051234;28;20037;-68
2023/06/12 11:18:11;;;;;;;8.63;3.03;;;29.10;40.90;;;;;;5051257;28;20098;-69
2023/06/12 11:20:37;;;;;;;3.50;2.80;;;29.20;41.40;;;;;;5051051;28;20406;-69
2023/06/12 11:23:04;;;;;;;8.48;3.35;;;29.30;40.70;;;;;;5050866;28;20044;-70
2023/06/12 11:25:44;;;;;;;6.35;3.20;;;29.30;40.50;;;;;;5050962;28;20116;-69
2023/06/12 11:28:12;;;;;;;6.53;2.67;;;29.40;40.80;;;;;;5049574;28;20033;-68
2023/06/12 11:30:38;;;;;;;4.63;2.80;;;29.20;40.40;;;;;;5049862;28;20048;-68
2023/06/12 11:33:08;;;;;;;6.90;3.08;;;29.20;39.70;;;;;;5045199;28;20123;-69
2023/06/12 11:35:42;;;;;;;3.80;2.35;;;29.20;39.70;;;;;;5050688;28;20398;-70
2023/06/12 11:38:11;;;;;;;6.53;3.10;;;29.30;40.20;;;;;;5051766;28;20370;-69
2023/06/12 11:40:37;;;;;;;6.78;2.67;;;29.10;40.00;;;;;;5051447;28;20122;-72
2023/06/12 11:43:02;;;;;;;6.78;3.63;;;29.10;40.20;;;;;;5050825;28;20072;-69
2023/06/12 11:45:30;;;;;;;3.95;2.42;;;29.10;40.20;;;;;;5052021;28;20040;-69
2023/06/12 11:47:57;;;;;;;3.30;2.70;;;29.00;40.10;;;;;;5051180;28;20033;-72
2023/06/12 11:50:23;;;;;;;5.80;2.63;;;29.10;40.10;;;;;;5033787;28;20241;-72
2023/06/12 11:52:50;;;;;;;7.15;2.85;;;29.10;40.20;;;;;;5051730;28;20044;-73
2023/06/12 11:55:16;;;;;;;5.93;2.65;;;29.10;40.40;;;;;;5051424;28;20013;-72
2023/06/12 11:57:49;;;;;;;4.50;2.78;;;29.20;39.70;;;;;;5052116;28;20075;-72
2023/06/12 12:00:20;;;;;;;4.60;2.53;;;29.20;39.50;;;;;;5051939;28;20060;-71
2023/06/12 12:02:51;;;;;;;5.68;3.00;;;29.20;39.40;;;;;;5051317;28;20049;-73
2023/06/12 12:05:24;;;;;;;8.73;2.95;;;29.20;39.60;;;;;;5050114;28;20036;-71
2023/06/12 12:07:56;;;;;;;5.03;2.80;;;29.10;39.10;;;;;;5051241;28;20036;-74
2023/06/12 12:10:22;;;;;;;4.35;2.65;;;29.00;39.40;;;;;;5051407;28;20045;-72
2023/06/12 12:12:58;;;;;;;4.65;3.10;;;29.00;39.20;;;;;;5052390;28;20040;-72
2023/06/12 12:15:24;;;;;;;6.35;3.22;;;28.90;38.50;;;;;;5051438;28;20037;-74
2023/06/12 12:17:53;;;;;;;8.63;3.10;;;28.90;38.90;;;;;;5051098;28;20043;-71
2023/06/12 12:20:21;;;;;;;6.38;2.90;;;28.90;38.90;;;;;;5050497;28;20033;-73
2023/06/12 12:22:51;;;;;;;4.97;2.78;;;28.70;39.70;;;;;;5051010;28;20509;-71
2023/06/12 12:25:28;;;;;;;4.55;2.70;;;28.80;39.10;;;;;;5050914;28;20052;-71
2023/06/12 12:27:56;;;;;;;7.18;3.15;;;28.70;39.30;;;;;;5051573;28;20206;-72
2023/06/12 12:30:22;;;;;;;9.82;3.67;;;28.70;38.70;;;;;;5050650;28;20056;-73
2023/06/12 12:32:53;;;;;;;5.93;2.90;;;28.70;38.90;;;;;;5052307;28;20499;-72
2023/06/12 12:35:20;;;;;;;3.30;2.72;;;28.70;38.60;;;;;;5051754;28;20044;-72
2023/06/12 12:37:46;;;;;;;8.40;3.38;;;28.60;38.80;;;;;;5052359;28;20035;-72
2023/06/12 12:40:13;;;;;;;4.20;3.00;;;28.60;38.60;;;;;;5054912;28;20039;-69
2023/06/12 12:42:49;;;;;;;5.25;2.35;;;28.70;38.30;;;;;;5055247;28;20025;-71
2023/06/12 12:45:16;;;;;;;9.27;3.13;;;28.70;38.20;;;;;;5053056;28;20103;-70
2023/06/12 12:47:47;;;;;;;4.97;2.85;;;28.70;37.60;;;;;;5054932;28;20045;-71